sensor_id;sensor_type;location;lat;lon;timestamp;P1;durP1;ratioP1;P2;durP2;ratioP2
48040;SDS011;33815;48.386;11.738;2024-01-15T00:01:04;29.88;;;15.02;;
48040;SDS011;33815;48.386;11.738;2024-01-15T00:03:29;33.60;;;14.55;;
48040;SDS011;33815;48.386;11.738;2024-01-15T00:05:55;26.27;;;11.15;;
48040;SDS011;33815;48.386;11.738;2024-01-15T00:08:20;25.95;;;11.98;;
48040;SDS011;33815;48.386;11.738;2024-01-15T00:10:45;23.00;;;10.35;;
48040;SDS011;33815;48.386;11.738;2024-01-15T00:13:11;22.15;;;11.50;;
48040;SDS011;33815;48.386;11.738;2024-01-15T00:15:36;21.40;;;10.73;;
48040;SDS011;33815;48.386;11.738;2024-01-15T00:18:01;26.65;;;12.57;;
48040;SDS011;33815;48.386;11.738;2024-01-15T00:20:26;30.65;;;12.65;;
48040;SDS011;33815;48.386;11.738;2024-01-15T00:22:52;28.38;;;13.38;;
48040;SDS011;33815;48.386;11.738;2024-01-15T00:25:17;29.20;;;13.35;;
48040;SDS011;33815;48.386;11.738;2024-01-15T00:27:42;29.17;;;13.45;;
48040;SDS011;33815;48.386;11.738;2024-01-15T00:30:08;30.13;;;13.90;;
48040;SDS011;33815;48.386;11.738;2024-01-15T00:32:34;28.77;;;13.50;;
48040;SDS011;33815;48.386;11.738;2024-01-15T00:34:59;25.48;;;13.32;;
48040;SDS011;33815;48.386;11.738;2024-01-15T00:37:24;27.05;;;13.15;;
48040;SDS011;33815;48.386;11.738;2024-01-15T00:39:50;32.10;;;12.40;;
48040;SDS011;33815;48.386;11.738;2024-01-15T00:42:15;24.80;;;11.35;;
48040;SDS011;33815;48.386;11.738;2024-01-15T00:44:40;23.52;;;13.05;;
48040;SDS011;33815;48.386;11.738;2024-01-15T00:47:06;26.90;;;12.27;;
48040;SDS011;33815;48.386;11.738;2024-01-15T00:49:32;27.08;;;12.90;;
48040;SDS011;33815;48.386;11.738;2024-01-15T00:51:57;21.30;;;11.27;;
48040;SDS011;33815;48.386;11.738;2024-01-15T00:54:22;20.58;;;10.32;;
48040;SDS011;33815;48.386;11.738;2024-01-15T00:56:48;29.52;;;12.95;;
48040;SDS011;33815;48.386;11.738;2024-01-15T00:59:13;29.55;;;11.48;;
48040;SDS011;33815;48.386;11.738;2024-01-15T01:01:40;20.73;;;9.95;;
48040;SDS011;33815;48.386;11.738;2024-01-15T01:04:07;25.02;;;9.45;;
48040;SDS011;33815;48.386;11.738;2024-01-15T01:06:34;16.52;;;8.75;;
48040;SDS011;33815;48.386;11.738;2024-01-15T01:08:59;19.38;;;9.13;;
48040;SDS011;33815;48.386;11.738;2024-01-15T01:11:24;19.27;;;9.68;;
48040;SDS011;33815;48.386;11.738;2024-01-15T01:13:50;16.17;;;8.52;;
48040;SDS011;33815;48.386;11.738;2024-01-15T01:16:15;15.90;;;8.90;;
48040;SDS011;33815;48.386;11.738;2024-01-15T01:18:40;18.50;;;9.77;;
48040;SDS011;33815;48.386;11.738;2024-01-15T01:21:05;18.77;;;9.20;;
48040;SDS011;33815;48.386;11.738;2024-01-15T01:23:31;20.17;;;9.52;;
48040;SDS011;33815;48.386;11.738;2024-01-15T01:25:56;28.48;;;11.43;;
48040;SDS011;33815;48.386;11.738;2024-01-15T01:28:21;25.42;;;10.95;;
48040;SDS011;33815;48.386;11.738;2024-01-15T01:30:47;30.40;;;11.07;;
48040;SDS011;33815;48.386;11.738;2024-01-15T01:33:12;20.73;;;10.07;;
48040;SDS011;33815;48.386;11.738;2024-01-15T01:35:37;27.98;;;11.48;;
48040;SDS011;33815;48.386;11.738;2024-01-15T01:38:02;25.70;;;11.20;;
48040;SDS011;33815;48.386;11.738;2024-01-15T01:40:28;24.63;;;12.00;;
48040;SDS011;33815;48.386;11.738;2024-01-15T01:42:53;24.02;;;11.25;;
48040;SDS011;33815;48.386;11.738;2024-01-15T01:45:18;29.00;;;12.02;;
48040;SDS011;33815;48.386;11.738;2024-01-15T01:47:44;24.70;;;11.80;;
48040;SDS011;33815;48.386;11.738;2024-01-15T01:50:09;27.42;;;11.95;;
48040;SDS011;33815;48.386;11.738;2024-01-15T01:52:34;26.15;;;12.43;;
48040;SDS011;33815;48.386;11.738;2024-01-15T01:55:01;23.45;;;11.70;;
48040;SDS011;33815;48.386;11.738;2024-01-15T01:57:28;24.25;;;11.05;;
48040;SDS011;33815;48.386;11.738;2024-01-15T01:59:55;25.75;;;11.50;;
48040;SDS011;33815;48.386;11.738;2024-01-15T02:02:21;22.20;;;11.73;;
48040;SDS011;33815;48.386;11.738;2024-01-15T02:04:47;23.33;;;12.02;;
48040;SDS011;33815;48.386;11.738;2024-01-15T02:07:14;20.95;;;10.23;;
48040;SDS011;33815;48.386;11.738;2024-01-15T02:09:42;21.88;;;11.52;;
48040;SDS011;33815;48.386;11.738;2024-01-15T02:12:07;23.27;;;11.15;;
48040;SDS011;33815;48.386;11.738;2024-01-15T02:14:33;22.55;;;11.57;;
48040;SDS011;33815;48.386;11.738;2024-01-15T02:16:58;24.85;;;12.30;;
48040;SDS011;33815;48.386;11.738;2024-01-15T02:19:24;22.85;;;10.80;;
48040;SDS011;33815;48.386;11.738;2024-01-15T02:21:49;22.52;;;11.13;;
48040;SDS011;33815;48.386;11.738;2024-01-15T02:24:14;21.75;;;10.75;;
48040;SDS011;33815;48.386;11.738;2024-01-15T02:26:39;26.05;;;10.90;;
48040;SDS011;33815;48.386;11.738;2024-01-15T02:29:06;20.50;;;11.75;;
48040;SDS011;33815;48.386;11.738;2024-01-15T02:31:34;24.02;;;11.52;;
48040;SDS011;33815;48.386;11.738;2024-01-15T02:34:01;23.80;;;11.93;;
48040;SDS011;33815;48.386;11.738;2024-01-15T02:36:26;20.65;;;10.75;;
48040;SDS011;33815;48.386;11.738;2024-01-15T02:38:51;25.52;;;11.90;;
48040;SDS011;33815;48.386;11.738;2024-01-15T02:41:17;22.77;;;10.45;;
48040;SDS011;33815;48.386;11.738;2024-01-15T02:43:42;22.05;;;11.88;;
48040;SDS011;33815;48.386;11.738;2024-01-15T02:46:07;22.58;;;10.48;;
48040;SDS011;33815;48.386;11.738;2024-01-15T02:48:33;21.88;;;10.55;;
48040;SDS011;33815;48.386;11.738;2024-01-15T02:51:00;23.40;;;10.25;;
48040;SDS011;33815;48.386;11.738;2024-01-15T02:53:25;24.45;;;11.15;;
48040;SDS011;33815;48.386;11.738;2024-01-15T02:55:51;15.70;;;9.75;;
48040;SDS011;33815;48.386;11.738;2024-01-15T02:58:16;23.48;;;10.63;;
48040;SDS011;33815;48.386;11.738;2024-01-15T03:00:41;24.15;;;11.07;;
48040;SDS011;33815;48.386;11.738;2024-01-15T03:03:07;16.52;;;9.43;;
48040;SDS011;33815;48.386;11.738;2024-01-15T03:05:32;23.15;;;11.80;;
48040;SDS011;33815;48.386;11.738;2024-01-15T03:07:58;19.83;;;10.38;;
48040;SDS011;33815;48.386;11.738;2024-01-15T03:10:23;20.92;;;10.32;;
48040;SDS011;33815;48.386;11.738;2024-01-15T03:12:48;22.50;;;10.88;;
48040;SDS011;33815;48.386;11.738;2024-01-15T03:15:14;21.83;;;10.75;;
48040;SDS011;33815;48.386;11.738;2024-01-15T03:17:40;24.00;;;9.30;;
48040;SDS011;33815;48.386;11.738;2024-01-15T03:20:07;17.42;;;10.27;;
48040;SDS011;33815;48.386;11.738;2024-01-15T03:22:33;16.05;;;8.65;;
48040;SDS011;33815;48.386;11.738;2024-01-15T03:24:58;21.73;;;9.77;;
48040;SDS011;33815;48.386;11.738;2024-01-15T03:27:23;18.33;;;9.23;;
48040;SDS011;33815;48.386;11.738;2024-01-15T03:29:49;17.83;;;9.30;;
48040;SDS011;33815;48.386;11.738;2024-01-15T03:32:14;17.85;;;9.27;;
48040;SDS011;33815;48.386;11.738;2024-01-15T03:34:41;22.02;;;10.65;;
48040;SDS011;33815;48.386;11.738;2024-01-15T03:37:06;16.20;;;7.93;;
48040;SDS011;33815;48.386;11.738;2024-01-15T03:39:31;18.08;;;9.43;;
48040;SDS011;33815;48.386;11.738;2024-01-15T03:41:57;17.35;;;7.90;;
48040;SDS011;33815;48.386;11.738;2024-01-15T03:44:22;18.92;;;8.68;;
48040;SDS011;33815;48.386;11.738;2024-01-15T03:46:47;15.23;;;8.85;;
48040;SDS011;33815;48.386;11.738;2024-01-15T03:49:13;19.50;;;8.60;;
48040;SDS011;33815;48.386;11.738;2024-01-15T03:51:38;17.20;;;9.23;;
48040;SDS011;33815;48.386;11.738;2024-01-15T03:54:03;18.83;;;9.05;;
48040;SDS011;33815;48.386;11.738;2024-01-15T03:56:28;15.40;;;8.98;;
48040;SDS011;33815;48.386;11.738;2024-01-15T03:58:54;24.67;;;9.25;;
48040;SDS011;33815;48.386;11.738;2024-01-15T04:01:19;21.80;;;9.73;;
48040;SDS011;33815;48.386;11.738;2024-01-15T04:03:44;16.83;;;8.60;;
48040;SDS011;33815;48.386;11.738;2024-01-15T04:06:09;18.65;;;9.20;;
48040;SDS011;33815;48.386;11.738;2024-01-15T04:08:35;17.77;;;9.35;;
48040;SDS011;33815;48.386;11.738;2024-01-15T04:11:00;22.00;;;8.00;;
48040;SDS011;33815;48.386;11.738;2024-01-15T04:13:26;16.33;;;8.52;;
48040;SDS011;33815;48.386;11.738;2024-01-15T04:15:52;13.85;;;8.32;;
48040;SDS011;33815;48.386;11.738;2024-01-15T04:18:17;18.63;;;9.23;;
48040;SDS011;33815;48.386;11.738;2024-01-15T04:20:43;12.20;;;7.30;;
48040;SDS011;33815;48.386;11.738;2024-01-15T04:23:08;20.33;;;8.73;;
48040;SDS011;33815;48.386;11.738;2024-01-15T04:25:34;14.93;;;8.20;;
48040;SDS011;33815;48.386;11.738;2024-01-15T04:27:59;21.40;;;7.97;;
48040;SDS011;33815;48.386;11.738;2024-01-15T04:30:24;18.02;;;8.23;;
48040;SDS011;33815;48.386;11.738;2024-01-15T04:32:50;12.93;;;7.35;;
48040;SDS011;33815;48.386;11.738;2024-01-15T04:35:15;17.63;;;8.70;;
48040;SDS011;33815;48.386;11.738;2024-01-15T04:37:40;16.73;;;8.45;;
48040;SDS011;33815;48.386;11.738;2024-01-15T04:40:06;15.82;;;7.70;;
48040;SDS011;33815;48.386;11.738;2024-01-15T04:42:32;20.52;;;8.93;;
48040;SDS011;33815;48.386;11.738;2024-01-15T04:44:57;15.20;;;8.23;;
48040;SDS011;33815;48.386;11.738;2024-01-15T04:47:24;14.50;;;8.05;;
48040;SDS011;33815;48.386;11.738;2024-01-15T04:49:49;15.88;;;7.95;;
48040;SDS011;33815;48.386;11.738;2024-01-15T04:52:14;16.92;;;8.35;;
48040;SDS011;33815;48.386;11.738;2024-01-15T04:54:40;12.02;;;7.82;;
48040;SDS011;33815;48.386;11.738;2024-01-15T04:57:05;14.55;;;8.93;;
48040;SDS011;33815;48.386;11.738;2024-01-15T04:59:30;16.40;;;7.85;;
48040;SDS011;33815;48.386;11.738;2024-01-15T05:01:56;16.17;;;8.30;;
48040;SDS011;33815;48.386;11.738;2024-01-15T05:04:21;15.00;;;8.05;;
48040;SDS011;33815;48.386;11.738;2024-01-15T05:06:46;17.88;;;8.40;;
48040;SDS011;33815;48.386;11.738;2024-01-15T05:09:12;13.02;;;7.50;;
48040;SDS011;33815;48.386;11.738;2024-01-15T05:11:38;16.90;;;8.30;;
48040;SDS011;33815;48.386;11.738;2024-01-15T05:14:04;14.93;;;7.30;;
48040;SDS011;33815;48.386;11.738;2024-01-15T05:16:29;12.30;;;7.55;;
48040;SDS011;33815;48.386;11.738;2024-01-15T05:18:54;17.77;;;7.50;;
48040;SDS011;33815;48.386;11.738;2024-01-15T05:21:19;12.18;;;7.15;;
48040;SDS011;33815;48.386;11.738;2024-01-15T05:23:44;17.20;;;7.65;;
48040;SDS011;33815;48.386;11.738;2024-01-15T05:26:10;16.83;;;8.80;;
48040;SDS011;33815;48.386;11.738;2024-01-15T05:28:35;11.63;;;6.90;;
48040;SDS011;33815;48.386;11.738;2024-01-15T05:31:00;16.75;;;8.32;;
48040;SDS011;33815;48.386;11.738;2024-01-15T05:33:26;11.77;;;7.10;;
48040;SDS011;33815;48.386;11.738;2024-01-15T05:35:51;19.13;;;8.40;;
48040;SDS011;33815;48.386;11.738;2024-01-15T05:38:18;12.52;;;6.43;;
48040;SDS011;33815;48.386;11.738;2024-01-15T05:40:43;11.73;;;7.03;;
48040;SDS011;33815;48.386;11.738;2024-01-15T05:43:08;12.00;;;6.47;;
48040;SDS011;33815;48.386;11.738;2024-01-15T05:45:34;12.73;;;7.43;;
48040;SDS011;33815;48.386;11.738;2024-01-15T05:48:03;13.35;;;6.68;;
48040;SDS011;33815;48.386;11.738;2024-01-15T05:50:28;12.57;;;7.13;;
48040;SDS011;33815;48.386;11.738;2024-01-15T05:52:54;12.73;;;6.85;;
48040;SDS011;33815;48.386;11.738;2024-01-15T05:55:19;17.92;;;7.22;;
48040;SDS011;33815;48.386;11.738;2024-01-15T05:57:45;15.25;;;7.43;;
48040;SDS011;33815;48.386;11.738;2024-01-15T06:00:10;12.43;;;7.05;;
48040;SDS011;33815;48.386;11.738;2024-01-15T06:02:39;13.88;;;7.43;;
48040;SDS011;33815;48.386;11.738;2024-01-15T06:05:05;13.00;;;6.97;;
48040;SDS011;33815;48.386;11.738;2024-01-15T06:07:31;14.80;;;8.48;;
48040;SDS011;33815;48.386;11.738;2024-01-15T06:09:57;13.55;;;7.47;;
48040;SDS011;33815;48.386;11.738;2024-01-15T06:12:22;14.02;;;7.80;;
48040;SDS011;33815;48.386;11.738;2024-01-15T06:14:48;13.88;;;7.75;;
48040;SDS011;33815;48.386;11.738;2024-01-15T06:17:13;12.15;;;6.55;;
48040;SDS011;33815;48.386;11.738;2024-01-15T06:19:39;30.42;;;13.55;;
48040;SDS011;33815;48.386;11.738;2024-01-15T06:22:04;26.17;;;12.93;;
48040;SDS011;33815;48.386;11.738;2024-01-15T06:24:29;18.85;;;10.10;;
48040;SDS011;33815;48.386;11.738;2024-01-15T06:26:55;20.35;;;13.88;;
48040;SDS011;33815;48.386;11.738;2024-01-15T06:29:21;14.55;;;7.55;;
48040;SDS011;33815;48.386;11.738;2024-01-15T06:31:46;31.67;;;15.90;;
48040;SDS011;33815;48.386;11.738;2024-01-15T06:34:11;22.65;;;12.85;;
48040;SDS011;33815;48.386;11.738;2024-01-15T06:36:37;23.05;;;12.35;;
48040;SDS011;33815;48.386;11.738;2024-01-15T06:39:02;22.13;;;11.57;;
48040;SDS011;33815;48.386;11.738;2024-01-15T06:41:27;14.68;;;8.27;;
48040;SDS011;33815;48.386;11.738;2024-01-15T06:43:53;14.07;;;7.30;;
48040;SDS011;33815;48.386;11.738;2024-01-15T06:46:21;17.58;;;9.68;;
48040;SDS011;33815;48.386;11.738;2024-01-15T06:48:47;13.80;;;7.70;;
48040;SDS011;33815;48.386;11.738;2024-01-15T06:51:13;18.58;;;10.23;;
48040;SDS011;33815;48.386;11.738;2024-01-15T06:53:40;39.53;;;18.73;;
48040;SDS011;33815;48.386;11.738;2024-01-15T06:56:05;36.75;;;18.20;;
48040;SDS011;33815;48.386;11.738;2024-01-15T06:58:30;14.15;;;8.77;;
48040;SDS011;33815;48.386;11.738;2024-01-15T07:00:56;18.60;;;9.02;;
48040;SDS011;33815;48.386;11.738;2024-01-15T07:03:21;11.63;;;6.95;;
48040;SDS011;33815;48.386;11.738;2024-01-15T07:05:47;9.25;;;6.20;;
48040;SDS011;33815;48.386;11.738;2024-01-15T07:08:12;12.88;;;5.72;;
48040;SDS011;33815;48.386;11.738;2024-01-15T07:10:37;10.55;;;6.18;;
48040;SDS011;33815;48.386;11.738;2024-01-15T07:13:03;15.02;;;9.15;;
48040;SDS011;33815;48.386;11.738;2024-01-15T07:15:30;12.98;;;6.95;;
48040;SDS011;33815;48.386;11.738;2024-01-15T07:17:55;16.20;;;9.80;;
48040;SDS011;33815;48.386;11.738;2024-01-15T07:20:20;9.40;;;6.60;;
48040;SDS011;33815;48.386;11.738;2024-01-15T07:22:46;11.10;;;6.28;;
48040;SDS011;33815;48.386;11.738;2024-01-15T07:25:11;15.52;;;9.25;;
48040;SDS011;33815;48.386;11.738;2024-01-15T07:27:37;11.02;;;5.63;;
48040;SDS011;33815;48.386;11.738;2024-01-15T07:30:03;11.35;;;6.03;;
48040;SDS011;33815;48.386;11.738;2024-01-15T07:32:30;9.52;;;5.60;;
48040;SDS011;33815;48.386;11.738;2024-01-15T07:34:56;13.60;;;6.28;;
48040;SDS011;33815;48.386;11.738;2024-01-15T07:37:21;12.82;;;6.55;;
48040;SDS011;33815;48.386;11.738;2024-01-15T07:39:48;11.38;;;6.18;;
48040;SDS011;33815;48.386;11.738;2024-01-15T07:42:13;14.63;;;8.60;;
48040;SDS011;33815;48.386;11.738;2024-01-15T07:44:39;11.32;;;6.75;;
48040;SDS011;33815;48.386;11.738;2024-01-15T07:47:04;9.38;;;5.82;;
48040;SDS011;33815;48.386;11.738;2024-01-15T07:49:30;7.20;;;5.47;;
48040;SDS011;33815;48.386;11.738;2024-01-15T07:51:55;14.60;;;7.05;;
48040;SDS011;33815;48.386;11.738;2024-01-15T07:54:20;17.10;;;7.95;;
48040;SDS011;33815;48.386;11.738;2024-01-15T07:59:29;7.65;;;4.78;;
48040;SDS011;33815;48.386;11.738;2024-01-15T08:01:55;7.00;;;4.65;;
48040;SDS011;33815;48.386;11.738;2024-01-15T08:04:20;7.93;;;4.70;;
48040;SDS011;33815;48.386;11.738;2024-01-15T08:06:47;7.68;;;5.65;;
48040;SDS011;33815;48.386;11.738;2024-01-15T08:09:12;9.70;;;5.05;;
48040;SDS011;33815;48.386;11.738;2024-01-15T08:11:41;9.48;;;4.85;;
48040;SDS011;33815;48.386;11.738;2024-01-15T08:14:07;11.25;;;5.90;;
48040;SDS011;33815;48.386;11.738;2024-01-15T08:16:32;9.82;;;5.93;;
48040;SDS011;33815;48.386;11.738;2024-01-15T08:18:58;9.60;;;4.63;;
48040;SDS011;33815;48.386;11.738;2024-01-15T08:21:23;6.28;;;4.07;;
48040;SDS011;33815;48.386;11.738;2024-01-15T08:23:49;6.47;;;4.53;;
48040;SDS011;33815;48.386;11.738;2024-01-15T08:26:14;5.78;;;4.28;;
48040;SDS011;33815;48.386;11.738;2024-01-15T08:28:39;5.93;;;4.13;;
48040;SDS011;33815;48.386;11.738;2024-01-15T08:31:05;6.90;;;4.13;;
48040;SDS011;33815;48.386;11.738;2024-01-15T08:33:30;5.75;;;4.03;;
48040;SDS011;33815;48.386;11.738;2024-01-15T08:35:55;5.05;;;3.55;;
48040;SDS011;33815;48.386;11.738;2024-01-15T08:38:21;5.20;;;2.88;;
48040;SDS011;33815;48.386;11.738;2024-01-15T08:40:46;5.15;;;3.55;;
48040;SDS011;33815;48.386;11.738;2024-01-15T08:43:11;3.38;;;2.90;;
48040;SDS011;33815;48.386;11.738;2024-01-15T08:45:37;3.53;;;3.22;;
48040;SDS011;33815;48.386;11.738;2024-01-15T08:48:02;4.78;;;2.97;;
48040;SDS011;33815;48.386;11.738;2024-01-15T08:50:29;4.07;;;2.88;;
48040;SDS011;33815;48.386;11.738;2024-01-15T08:52:54;5.30;;;3.13;;
48040;SDS011;33815;48.386;11.738;2024-01-15T08:55:20;2.85;;;2.53;;
48040;SDS011;33815;48.386;11.738;2024-01-15T08:57:47;4.65;;;3.15;;
48040;SDS011;33815;48.386;11.738;2024-01-15T09:00:13;3.85;;;2.55;;
48040;SDS011;33815;48.386;11.738;2024-01-15T09:02:38;2.58;;;2.38;;
48040;SDS011;33815;48.386;11.738;2024-01-15T09:05:04;4.03;;;3.05;;
48040;SDS011;33815;48.386;11.738;2024-01-15T09:07:29;4.90;;;3.08;;
48040;SDS011;33815;48.386;11.738;2024-01-15T09:09:54;5.05;;;2.83;;
48040;SDS011;33815;48.386;11.738;2024-01-15T09:12:20;5.32;;;3.05;;
48040;SDS011;33815;48.386;11.738;2024-01-15T09:14:47;3.00;;;2.70;;
48040;SDS011;33815;48.386;11.738;2024-01-15T09:17:12;3.92;;;2.53;;
48040;SDS011;33815;48.386;11.738;2024-01-15T09:19:37;3.75;;;2.47;;
48040;SDS011;33815;48.386;11.738;2024-01-15T09:22:04;4.57;;;2.92;;
48040;SDS011;33815;48.386;11.738;2024-01-15T09:24:30;5.68;;;3.40;;
48040;SDS011;33815;48.386;11.738;2024-01-15T09:26:55;2.97;;;2.63;;
48040;SDS011;33815;48.386;11.738;2024-01-15T09:29:20;4.22;;;3.20;;
48040;SDS011;33815;48.386;11.738;2024-01-15T09:31:46;3.25;;;2.63;;
48040;SDS011;33815;48.386;11.738;2024-01-15T09:34:11;4.10;;;2.67;;
48040;SDS011;33815;48.386;11.738;2024-01-15T09:36:40;3.80;;;2.60;;
48040;SDS011;33815;48.386;11.738;2024-01-15T09:39:06;5.70;;;3.13;;
48040;SDS011;33815;48.386;11.738;2024-01-15T09:41:33;4.35;;;2.75;;
48040;SDS011;33815;48.386;11.738;2024-01-15T09:44:02;6.60;;;3.42;;
48040;SDS011;33815;48.386;11.738;2024-01-15T09:46:28;3.10;;;2.70;;
48040;SDS011;33815;48.386;11.738;2024-01-15T09:48:53;3.47;;;2.50;;
48040;SDS011;33815;48.386;11.738;2024-01-15T09:51:19;4.53;;;3.15;;
48040;SDS011;33815;48.386;11.738;2024-01-15T09:53:45;2.83;;;2.50;;
48040;SDS011;33815;48.386;11.738;2024-01-15T09:56:12;3.40;;;2.40;;
48040;SDS011;33815;48.386;11.738;2024-01-15T09:58:37;4.45;;;2.78;;
48040;SDS011;33815;48.386;11.738;2024-01-15T10:01:04;5.22;;;2.83;;
48040;SDS011;33815;48.386;11.738;2024-01-15T10:03:29;3.80;;;2.60;;
48040;SDS011;33815;48.386;11.738;2024-01-15T10:05:55;5.93;;;2.67;;
48040;SDS011;33815;48.386;11.738;2024-01-15T10:08:23;4.40;;;2.67;;
48040;SDS011;33815;48.386;11.738;2024-01-15T10:10:49;4.90;;;2.90;;
48040;SDS011;33815;48.386;11.738;2024-01-15T10:13:15;6.40;;;4.22;;
48040;SDS011;33815;48.386;11.738;2024-01-15T10:15:40;10.73;;;5.50;;
48040;SDS011;33815;48.386;11.738;2024-01-15T10:18:07;10.52;;;6.38;;
48040;SDS011;33815;48.386;11.738;2024-01-15T10:20:33;9.57;;;5.22;;
48040;SDS011;33815;48.386;11.738;2024-01-15T10:22:58;10.95;;;4.70;;
48040;SDS011;33815;48.386;11.738;2024-01-15T10:25:24;5.72;;;4.25;;
48040;SDS011;33815;48.386;11.738;2024-01-15T10:28:03;8.63;;;5.65;;
48040;SDS011;33815;48.386;11.738;2024-01-15T10:30:29;8.00;;;5.05;;
48040;SDS011;33815;48.386;11.738;2024-01-15T10:32:57;9.10;;;5.57;;
48040;SDS011;33815;48.386;11.738;2024-01-15T10:35:35;11.70;;;6.45;;
48040;SDS011;33815;48.386;11.738;2024-01-15T10:38:00;9.73;;;5.68;;
48040;SDS011;33815;48.386;11.738;2024-01-15T10:40:28;10.10;;;5.60;;
48040;SDS011;33815;48.386;11.738;2024-01-15T10:42:54;10.77;;;6.38;;
48040;SDS011;33815;48.386;11.738;2024-01-15T10:45:19;11.70;;;6.25;;
48040;SDS011;33815;48.386;11.738;2024-01-15T10:47:45;12.40;;;6.40;;
48040;SDS011;33815;48.386;11.738;2024-01-15T10:50:11;12.40;;;6.72;;
48040;SDS011;33815;48.386;11.738;2024-01-15T10:52:37;11.90;;;5.85;;
48040;SDS011;33815;48.386;11.738;2024-01-15T10:55:05;11.45;;;6.35;;
48040;SDS011;33815;48.386;11.738;2024-01-15T10:57:33;9.27;;;5.72;;
48040;SDS011;33815;48.386;11.738;2024-01-15T10:59:59;9.48;;;6.30;;
48040;SDS011;33815;48.386;11.738;2024-01-15T11:02:27;8.60;;;5.53;;
48040;SDS011;33815;48.386;11.738;2024-01-15T11:04:53;9.98;;;5.50;;
48040;SDS011;33815;48.386;11.738;2024-01-15T11:07:20;8.50;;;5.28;;
48040;SDS011;33815;48.386;11.738;2024-01-15T11:09:46;10.55;;;5.60;;
48040;SDS011;33815;48.386;11.738;2024-01-15T11:12:12;7.80;;;4.97;;
48040;SDS011;33815;48.386;11.738;2024-01-15T11:14:48;7.68;;;4.85;;
48040;SDS011;33815;48.386;11.738;2024-01-15T11:17:14;10.23;;;4.57;;
48040;SDS011;33815;48.386;11.738;2024-01-15T11:19:44;8.13;;;4.57;;
48040;SDS011;33815;48.386;11.738;2024-01-15T11:24:54;7.85;;;4.70;;
48040;SDS011;33815;48.386;11.738;2024-01-15T11:27:20;6.43;;;3.63;;
48040;SDS011;33815;48.386;11.738;2024-01-15T11:30:07;9.87;;;5.00;;
48040;SDS011;33815;48.386;11.738;2024-01-15T11:32:35;7.10;;;4.57;;
48040;SDS011;33815;48.386;11.738;2024-01-15T11:35:01;6.47;;;4.40;;
48040;SDS011;33815;48.386;11.738;2024-01-15T11:37:28;5.45;;;3.92;;
48040;SDS011;33815;48.386;11.738;2024-01-15T11:40:13;5.07;;;3.53;;
48040;SDS011;33815;48.386;11.738;2024-01-15T11:42:44;5.05;;;3.30;;
48040;SDS011;33815;48.386;11.738;2024-01-15T11:45:10;6.22;;;4.03;;
48040;SDS011;33815;48.386;11.738;2024-01-15T11:50:24;7.18;;;3.80;;
48040;SDS011;33815;48.386;11.738;2024-01-15T11:52:57;7.70;;;5.40;;
48040;SDS011;33815;48.386;11.738;2024-01-15T11:55:27;7.05;;;3.67;;
48040;SDS011;33815;48.386;11.738;2024-01-15T11:57:58;7.60;;;3.40;;
48040;SDS011;33815;48.386;11.738;2024-01-15T12:00:26;10.32;;;4.18;;
48040;SDS011;33815;48.386;11.738;2024-01-15T12:02:51;6.18;;;3.33;;
48040;SDS011;33815;48.386;11.738;2024-01-15T12:05:17;11.48;;;4.00;;
48040;SDS011;33815;48.386;11.738;2024-01-15T12:07:44;9.15;;;4.13;;
48040;SDS011;33815;48.386;11.738;2024-01-15T12:10:11;6.40;;;3.80;;
48040;SDS011;33815;48.386;11.738;2024-01-15T12:12:51;5.90;;;3.60;;
48040;SDS011;33815;48.386;11.738;2024-01-15T12:15:21;6.65;;;4.07;;
48040;SDS011;33815;48.386;11.738;2024-01-15T12:17:47;4.47;;;3.35;;
48040;SDS011;33815;48.386;11.738;2024-01-15T12:20:12;6.15;;;3.53;;
48040;SDS011;33815;48.386;11.738;2024-01-15T12:22:38;6.13;;;3.67;;
48040;SDS011;33815;48.386;11.738;2024-01-15T12:25:04;5.85;;;3.88;;
48040;SDS011;33815;48.386;11.738;2024-01-15T12:27:30;8.73;;;3.70;;
48040;SDS011;33815;48.386;11.738;2024-01-15T12:29:55;5.18;;;3.58;;
48040;SDS011;33815;48.386;11.738;2024-01-15T12:32:20;8.55;;;3.92;;
48040;SDS011;33815;48.386;11.738;2024-01-15T12:34:48;6.95;;;3.85;;
48040;SDS011;33815;48.386;11.738;2024-01-15T12:37:14;5.20;;;3.72;;
48040;SDS011;33815;48.386;11.738;2024-01-15T12:39:39;7.20;;;3.22;;
48040;SDS011;33815;48.386;11.738;2024-01-15T12:42:08;5.82;;;3.97;;
48040;SDS011;33815;48.386;11.738;2024-01-15T12:44:33;6.07;;;4.05;;
48040;SDS011;33815;48.386;11.738;2024-01-15T12:46:58;7.80;;;3.90;;
48040;SDS011;33815;48.386;11.738;2024-01-15T12:49:24;6.18;;;3.92;;
48040;SDS011;33815;48.386;11.738;2024-01-15T12:51:56;5.68;;;4.50;;
48040;SDS011;33815;48.386;11.738;2024-01-15T12:54:22;6.05;;;4.13;;
48040;SDS011;33815;48.386;11.738;2024-01-15T12:56:49;7.10;;;3.97;;
48040;SDS011;33815;48.386;11.738;2024-01-15T12:59:14;4.95;;;4.05;;
48040;SDS011;33815;48.386;11.738;2024-01-15T13:01:39;7.03;;;4.43;;
48040;SDS011;33815;48.386;11.738;2024-01-15T13:04:06;6.47;;;4.18;;
48040;SDS011;33815;48.386;11.738;2024-01-15T13:06:33;8.85;;;3.92;;
48040;SDS011;33815;48.386;11.738;2024-01-15T13:08:59;6.38;;;3.85;;
48040;SDS011;33815;48.386;11.738;2024-01-15T13:11:24;7.65;;;3.60;;
48040;SDS011;33815;48.386;11.738;2024-01-15T13:13:50;6.57;;;4.15;;
48040;SDS011;33815;48.386;11.738;2024-01-15T13:16:16;6.95;;;3.65;;
48040;SDS011;33815;48.386;11.738;2024-01-15T13:18:41;5.07;;;3.28;;
48040;SDS011;33815;48.386;11.738;2024-01-15T13:21:06;7.43;;;3.60;;
48040;SDS011;33815;48.386;11.738;2024-01-15T13:23:31;6.93;;;3.88;;
48040;SDS011;33815;48.386;11.738;2024-01-15T13:25:57;5.15;;;3.75;;
48040;SDS011;33815;48.386;11.738;2024-01-15T13:28:23;6.35;;;4.07;;
48040;SDS011;33815;48.386;11.738;2024-01-15T13:30:48;8.93;;;3.83;;
48040;SDS011;33815;48.386;11.738;2024-01-15T13:33:13;5.75;;;3.40;;
48040;SDS011;33815;48.386;11.738;2024-01-15T13:35:39;5.70;;;4.00;;
48040;SDS011;33815;48.386;11.738;2024-01-15T13:38:04;6.07;;;4.18;;
48040;SDS011;33815;48.386;11.738;2024-01-15T13:40:29;8.90;;;4.45;;
48040;SDS011;33815;48.386;11.738;2024-01-15T13:42:55;4.65;;;4.00;;
48040;SDS011;33815;48.386;11.738;2024-01-15T13:45:20;8.45;;;4.28;;
48040;SDS011;33815;48.386;11.738;2024-01-15T13:47:45;5.63;;;3.97;;
48040;SDS011;33815;48.386;11.738;2024-01-15T13:50:11;7.63;;;3.70;;
48040;SDS011;33815;48.386;11.738;2024-01-15T13:52:36;8.27;;;4.57;;
48040;SDS011;33815;48.386;11.738;2024-01-15T13:55:02;5.63;;;3.95;;
48040;SDS011;33815;48.386;11.738;2024-01-15T13:57:28;7.45;;;3.97;;
48040;SDS011;33815;48.386;11.738;2024-01-15T13:59:53;11.40;;;4.43;;
48040;SDS011;33815;48.386;11.738;2024-01-15T14:02:18;6.47;;;3.83;;
48040;SDS011;33815;48.386;11.738;2024-01-15T14:04:45;5.65;;;4.03;;
48040;SDS011;33815;48.386;11.738;2024-01-15T14:07:10;8.63;;;4.20;;
48040;SDS011;33815;48.386;11.738;2024-01-15T14:09:35;6.55;;;4.13;;
48040;SDS011;33815;48.386;11.738;2024-01-15T14:12:02;10.43;;;4.28;;
48040;SDS011;33815;48.386;11.738;2024-01-15T14:14:28;7.90;;;4.20;;
48040;SDS011;33815;48.386;11.738;2024-01-15T14:16:53;4.93;;;3.85;;
48040;SDS011;33815;48.386;11.738;2024-01-15T14:19:18;7.28;;;4.50;;
48040;SDS011;33815;48.386;11.738;2024-01-15T14:21:43;7.25;;;4.95;;
48040;SDS011;33815;48.386;11.738;2024-01-15T14:24:09;6.15;;;4.25;;